sensor_id;sensor_type;location;lat;lon;timestamp;pressure;altitude;pressure_sealevel;temperature;humidity
10348;BME280;5220;43.192;23.284;2023-02-17T00:01:18;97773.31;;;4.35;100.00
10348;BME280;5220;43.192;23.284;2023-02-17T00:03:46;97774.66;;;4.45;100.00
10348;BME280;5220;43.192;23.284;2023-02-17T00:06:14;97763.97;;;4.56;100.00
10348;BME280;5220;43.192;23.284;2023-02-17T00:08:41;97779.72;;;4.48;100.00
10348;BME280;5220;43.192;23.284;2023-02-17T00:11:10;97785.53;;;4.53;100.00
10348;BME280;5220;43.192;23.284;2023-02-17T00:13:37;97786.72;;;4.20;100.00
10348;BME280;5220;43.192;23.284;2023-02-17T00:16:08;97780.13;;;4.11;100.00
10348;BME280;5220;43.192;23.284;2023-02-17T00:18:35;97766.56;;;4.31;100.00
10348;BME280;5220;43.192;23.284;2023-02-17T00:21:10;97779.00;;;3.95;100.00
10348;BME280;5220;43.192;23.284;2023-02-17T00:23:37;97761.22;;;4.12;100.00
10348;BME280;5220;43.192;23.284;2023-02-17T00:26:04;97757.88;;;4.10;100.00
10348;BME280;5220;43.192;23.284;2023-02-17T00:28:32;97762.63;;;4.21;100.00
10348;BME280;5220;43.192;23.284;2023-02-17T00:30:59;97760.13;;;4.19;100.00
10348;BME280;5220;43.192;23.284;2023-02-17T00:33:25;97764.56;;;4.14;100.00
10348;BME280;5220;43.192;23.284;2023-02-17T00:35:52;97760.69;;;4.27;100.00
10348;BME280;5220;43.192;23.284;2023-02-17T00:38:19;97758.75;;;4.34;100.00
10348;BME280;5220;43.192;23.284;2023-02-17T00:40:45;97764.06;;;4.29;100.00
10348;BME280;5220;43.192;23.284;2023-02-17T00:43:12;97761.97;;;4.16;100.00
10348;BME280;5220;43.192;23.284;2023-02-17T00:45:40;97759.19;;;4.22;100.00
10348;BME280;5220;43.192;23.284;2023-02-17T00:48:07;97752.91;;;4.29;100.00
10348;BME280;5220;43.192;23.284;2023-02-17T00:50:35;97751.13;;;4.31;100.00
10348;BME280;5220;43.192;23.284;2023-02-17T00:53:01;97745.94;;;4.32;100.00
10348;BME280;5220;43.192;23.284;2023-02-17T00:55:28;97748.44;;;4.34;100.00
10348;BME280;5220;43.192;23.284;2023-02-17T00:57:55;97749.94;;;4.40;100.00
10348;BME280;5220;43.192;23.284;2023-02-17T01:00:22;97746.72;;;4.34;100.00
10348;BME280;5220;43.192;23.284;2023-02-17T01:02:50;97747.03;;;4.25;100.00
10348;BME280;5220;43.192;23.284;2023-02-17T01:05:17;97740.03;;;4.29;100.00
10348;BME280;5220;43.192;23.284;2023-02-17T01:07:43;97733.56;;;4.17;100.00
10348;BME280;5220;43.192;23.284;2023-02-17T01:10:10;97733.34;;;4.23;100.00
10348;BME280;5220;43.192;23.284;2023-02-17T01:12:37;97736.63;;;4.28;100.00
10348;BME280;5220;43.192;23.284;2023-02-17T01:15:05;97733.09;;;4.31;100.00
10348;BME280;5220;43.192;23.284;2023-02-17T01:17:32;97730.47;;;4.32;100.00
10348;BME280;5220;43.192;23.284;2023-02-17T01:20:00;97733.16;;;4.29;100.00
10348;BME280;5220;43.192;23.284;2023-02-17T01:22:27;97722.75;;;4.32;100.00
10348;BME280;5220;43.192;23.284;2023-02-17T01:24:53;97723.91;;;3.99;100.00
10348;BME280;5220;43.192;23.284;2023-02-17T01:27:20;97718.44;;;4.08;100.00
10348;BME280;5220;43.192;23.284;2023-02-17T01:29:47;97719.03;;;4.16;100.00
10348;BME280;5220;43.192;23.284;2023-02-17T01:32:13;97722.69;;;4.11;100.00
10348;BME280;5220;43.192;23.284;2023-02-17T01:34:40;97712.63;;;4.03;100.00
10348;BME280;5220;43.192;23.284;2023-02-17T01:37:08;97716.47;;;4.16;100.00
10348;BME280;5220;43.192;23.284;2023-02-17T01:39:35;97705.75;;;4.27;100.00
10348;BME280;5220;43.192;23.284;2023-02-17T01:42:02;97702.16;;;4.32;100.00
10348;BME280;5220;43.192;23.284;2023-02-17T01:44:31;97700.56;;;4.28;100.00
10348;BME280;5220;43.192;23.284;2023-02-17T01:46:58;97701.31;;;4.32;100.00
10348;BME280;5220;43.192;23.284;2023-02-17T01:49:31;97699.00;;;4.24;100.00
10348;BME280;5220;43.192;23.284;2023-02-17T01:52:03;97690.31;;;4.27;100.00
10348;BME280;5220;43.192;23.284;2023-02-17T01:54:37;97696.31;;;4.27;100.00
10348;BME280;5220;43.192;23.284;2023-02-17T01:57:06;97691.84;;;4.32;100.00
10348;BME280;5220;43.192;23.284;2023-02-17T01:59:33;97697.53;;;4.41;100.00
10348;BME280;5220;43.192;23.284;2023-02-17T02:02:02;97695.09;;;4.38;100.00
10348;BME280;5220;43.192;23.284;2023-02-17T02:04:33;97694.13;;;4.40;100.00
10348;BME280;5220;43.192;23.284;2023-02-17T02:07:02;97694.97;;;4.41;100.00
10348;BME280;5220;43.192;23.284;2023-02-17T02:09:32;97691.53;;;4.40;100.00
10348;BME280;5220;43.192;23.284;2023-02-17T02:12:15;97694.19;;;4.39;100.00
10348;BME280;5220;43.192;23.284;2023-02-17T02:14:42;97688.97;;;4.40;100.00
10348;BME280;5220;43.192;23.284;2023-02-17T02:17:24;97692.41;;;4.41;100.00
10348;BME280;5220;43.192;23.284;2023-02-17T02:20:19;97695.81;;;4.41;100.00
10348;BME280;5220;43.192;23.284;2023-02-17T02:23:37;97683.63;;;4.23;100.00
10348;BME280;5220;43.192;23.284;2023-02-17T02:29:39;97688.47;;;4.30;100.00
10348;BME280;5220;43.192;23.284;2023-02-17T02:32:42;97692.63;;;4.34;100.00
10348;BME280;5220;43.192;23.284;2023-02-17T02:35:15;97691.84;;;4.32;100.00
10348;BME280;5220;43.192;23.284;2023-02-17T02:37:46;97696.19;;;4.30;100.00
10348;BME280;5220;43.192;23.284;2023-02-17T02:40:18;97688.47;;;4.30;100.00
10348;BME280;5220;43.192;23.284;2023-02-17T02:42:47;97700.47;;;4.31;100.00
10348;BME280;5220;43.192;23.284;2023-02-17T02:45:16;97699.69;;;4.29;100.00
10348;BME280;5220;43.192;23.284;2023-02-17T02:47:47;97700.56;;;4.28;100.00
10348;BME280;5220;43.192;23.284;2023-02-17T02:50:16;97692.00;;;4.28;100.00
10348;BME280;5220;43.192;23.284;2023-02-17T02:52:55;97708.22;;;4.30;100.00
10348;BME280;5220;43.192;23.284;2023-02-17T02:55:35;97702.44;;;4.23;100.00
10348;BME280;5220;43.192;23.284;2023-02-17T02:58:09;97701.53;;;4.26;100.00
10348;BME280;5220;43.192;23.284;2023-02-17T03:00:40;97694.78;;;4.22;100.00
10348;BME280;5220;43.192;23.284;2023-02-17T03:03:15;97699.19;;;4.20;100.00
10348;BME280;5220;43.192;23.284;2023-02-17T03:05:48;97700.72;;;4.24;100.00
10348;BME280;5220;43.192;23.284;2023-02-17T03:08:24;97701.78;;;4.18;100.00
10348;BME280;5220;43.192;23.284;2023-02-17T03:10:53;97706.94;;;4.18;100.00
10348;BME280;5220;43.192;23.284;2023-02-17T03:13:21;97704.44;;;4.17;100.00
10348;BME280;5220;43.192;23.284;2023-02-17T03:15:48;97705.16;;;3.96;100.00
10348;BME280;5220;43.192;23.284;2023-02-17T03:18:17;97693.94;;;3.98;100.00
10348;BME280;5220;43.192;23.284;2023-02-17T03:20:48;97704.81;;;4.06;100.00
10348;BME280;5220;43.192;23.284;2023-02-17T03:23:16;97696.00;;;4.12;100.00
10348;BME280;5220;43.192;23.284;2023-02-17T03:25:43;97693.31;;;4.15;100.00
10348;BME280;5220;43.192;23.284;2023-02-17T03:28:10;97690.72;;;4.16;100.00
10348;BME280;5220;43.192;23.284;2023-02-17T03:30:36;97695.88;;;4.16;100.00
10348;BME280;5220;43.192;23.284;2023-02-17T03:33:03;97703.59;;;4.16;100.00
10348;BME280;5220;43.192;23.284;2023-02-17T03:35:31;97700.22;;;4.14;100.00
10348;BME280;5220;43.192;23.284;2023-02-17T03:37:58;97701.13;;;4.13;100.00
10348;BME280;5220;43.192;23.284;2023-02-17T03:40:25;97704.47;;;4.15;100.00
10348;BME280;5220;43.192;23.284;2023-02-17T03:42:52;97703.63;;;4.15;100.00
10348;BME280;5220;43.192;23.284;2023-02-17T03:45:18;97702.66;;;4.17;100.00
10348;BME280;5220;43.192;23.284;2023-02-17T03:47:45;97717.41;;;4.14;100.00
10348;BME280;5220;43.192;23.284;2023-02-17T03:50:12;97719.88;;;4.17;100.00
10348;BME280;5220;43.192;23.284;2023-02-17T03:52:40;97713.81;;;4.18;100.00
10348;BME280;5220;43.192;23.284;2023-02-17T03:55:07;97714.88;;;4.12;100.00
10348;BME280;5220;43.192;23.284;2023-02-17T03:57:33;97720.28;;;4.05;100.00
10348;BME280;5220;43.192;23.284;2023-02-17T04:00:00;97728.19;;;4.00;100.00
10348;BME280;5220;43.192;23.284;2023-02-17T04:02:28;97720.56;;;3.97;100.00
10348;BME280;5220;43.192;23.284;2023-02-17T04:04:54;97732.38;;;3.78;100.00
10348;BME280;5220;43.192;23.284;2023-02-17T04:07:21;97725.34;;;3.83;100.00
10348;BME280;5220;43.192;23.284;2023-02-17T04:09:49;97730.38;;;3.86;100.00
10348;BME280;5220;43.192;23.284;2023-02-17T04:12:16;97731.84;;;3.93;100.00
10348;BME280;5220;43.192;23.284;2023-02-17T04:14:42;97731.06;;;3.91;100.00
10348;BME280;5220;43.192;23.284;2023-02-17T04:17:09;97735.13;;;3.98;100.00
10348;BME280;5220;43.192;23.284;2023-02-17T04:19:36;97734.22;;;3.99;100.00
10348;BME280;5220;43.192;23.284;2023-02-17T04:22:02;97740.31;;;3.97;100.00
10348;BME280;5220;43.192;23.284;2023-02-17T04:24:33;97743.94;;;3.91;100.00
10348;BME280;5220;43.192;23.284;2023-02-17T04:27:02;97751.13;;;4.06;100.00
10348;BME280;5220;43.192;23.284;2023-02-17T04:29:28;97751.81;;;4.11;100.00
10348;BME280;5220;43.192;23.284;2023-02-17T04:31:55;97744.78;;;4.16;100.00
10348;BME280;5220;43.192;23.284;2023-02-17T04:34:22;97751.44;;;4.22;100.00
10348;BME280;5220;43.192;23.284;2023-02-17T04:36:49;97756.72;;;4.19;100.00
10348;BME280;5220;43.192;23.284;2023-02-17T04:39:15;97748.09;;;3.95;100.00
10348;BME280;5220;43.192;23.284;2023-02-17T04:41:42;97758.81;;;4.08;100.00
10348;BME280;5220;43.192;23.284;2023-02-17T04:44:10;97758.91;;;4.05;100.00
10348;BME280;5220;43.192;23.284;2023-02-17T04:46:37;97750.94;;;4.12;100.00
10348;BME280;5220;43.192;23.284;2023-02-17T04:49:04;97760.03;;;4.22;100.00
10348;BME280;5220;43.192;23.284;2023-02-17T04:51:31;97754.16;;;4.17;100.00
10348;BME280;5220;43.192;23.284;2023-02-17T04:53:57;97753.94;;;4.23;100.00
10348;BME280;5220;43.192;23.284;2023-02-17T04:56:24;97761.50;;;4.29;100.00
10348;BME280;5220;43.192;23.284;2023-02-17T04:58:51;97755.38;;;4.32;100.00
10348;BME280;5220;43.192;23.284;2023-02-17T05:01:19;97759.63;;;4.33;100.00
10348;BME280;5220;43.192;23.284;2023-02-17T05:03:45;97753.06;;;4.24;100.00
10348;BME280;5220;43.192;23.284;2023-02-17T05:06:12;97761.09;;;4.40;100.00
10348;BME280;5220;43.192;23.284;2023-02-17T05:08:39;97768.34;;;4.54;100.00
10348;BME280;5220;43.192;23.284;2023-02-17T05:11:06;97762.22;;;4.56;100.00
10348;BME280;5220;43.192;23.284;2023-02-17T05:13:32;97765.31;;;4.66;100.00
10348;BME280;5220;43.192;23.284;2023-02-17T05:15:59;97760.16;;;4.66;100.00
10348;BME280;5220;43.192;23.284;2023-02-17T05:18:27;97764.91;;;4.76;100.00
10348;BME280;5220;43.192;23.284;2023-02-17T05:20:54;97765.25;;;4.91;100.00
10348;BME280;5220;43.192;23.284;2023-02-17T05:23:21;97764.00;;;5.01;100.00
10348;BME280;5220;43.192;23.284;2023-02-17T05:25:47;97763.31;;;4.96;100.00
10348;BME280;5220;43.192;23.284;2023-02-17T05:28:14;97772.16;;;5.12;100.00
10348;BME280;5220;43.192;23.284;2023-02-17T05:30:41;97773.53;;;5.20;100.00
10348;BME280;5220;43.192;23.284;2023-02-17T05:33:08;97768.34;;;5.22;100.00
10348;BME280;5220;43.192;23.284;2023-02-17T05:35:36;97774.34;;;5.22;100.00
10348;BME280;5220;43.192;23.284;2023-02-17T05:38:02;97782.19;;;5.19;100.00
10348;BME280;5220;43.192;23.284;2023-02-17T05:40:29;97783.16;;;5.17;100.00
10348;BME280;5220;43.192;23.284;2023-02-17T05:42:56;97781.59;;;5.13;100.00
10348;BME280;5220;43.192;23.284;2023-02-17T05:45:22;97783.59;;;5.05;100.00
10348;BME280;5220;43.192;23.284;2023-02-17T05:47:49;97785.69;;;4.95;100.00
10348;BME280;5220;43.192;23.284;2023-02-17T05:50:16;97793.03;;;4.59;100.00
10348;BME280;5220;43.192;23.284;2023-02-17T05:52:44;97797.72;;;4.73;100.00
10348;BME280;5220;43.192;23.284;2023-02-17T05:55:11;97802.97;;;4.70;100.00
10348;BME280;5220;43.192;23.284;2023-02-17T05:57:37;97807.22;;;4.71;100.00
10348;BME280;5220;43.192;23.284;2023-02-17T06:00:05;97809.78;;;4.71;100.00
10348;BME280;5220;43.192;23.284;2023-02-17T06:02:32;97818.50;;;4.44;100.00
10348;BME280;5220;43.192;23.284;2023-02-17T06:04:59;97814.66;;;4.55;100.00
10348;BME280;5220;43.192;23.284;2023-02-17T06:07:26;97803.50;;;4.55;100.00
10348;BME280;5220;43.192;23.284;2023-02-17T06:09:54;97818.28;;;4.50;100.00
10348;BME280;5220;43.192;23.284;2023-02-17T06:12:20;97817.19;;;4.32;100.00
10348;BME280;5220;43.192;23.284;2023-02-17T06:14:47;97818.50;;;4.44;100.00
10348;BME280;5220;43.192;23.284;2023-02-17T06:17:14;97826.84;;;4.50;100.00
10348;BME280;5220;43.192;23.284;2023-02-17T06:19:40;97846.94;;;4.41;100.00
10348;BME280;5220;43.192;23.284;2023-02-17T06:22:07;97848.00;;;4.60;100.00
10348;BME280;5220;43.192;23.284;2023-02-17T06:24:34;97849.13;;;4.76;100.00
10348;BME280;5220;43.192;23.284;2023-02-17T06:27:02;97846.44;;;4.79;100.00
10348;BME280;5220;43.192;23.284;2023-02-17T06:29:29;97848.50;;;4.69;100.00
10348;BME280;5220;43.192;23.284;2023-02-17T06:31:55;97856.59;;;4.83;100.00
10348;BME280;5220;43.192;23.284;2023-02-17T06:34:22;97858.91;;;4.91;100.00
10348;BME280;5220;43.192;23.284;2023-02-17T06:36:49;97863.34;;;4.86;100.00
10348;BME280;5220;43.192;23.284;2023-02-17T06:39:16;97859.78;;;4.90;100.00
10348;BME280;5220;43.192;23.284;2023-02-17T06:41:42;97858.88;;;5.37;100.00
10348;BME280;5220;43.192;23.284;2023-02-17T06:44:10;97861.63;;;5.33;100.00
10348;BME280;5220;43.192;23.284;2023-02-17T06:46:37;97862.06;;;5.44;100.00
10348;BME280;5220;43.192;23.284;2023-02-17T06:49:04;97868.84;;;5.47;100.00
10348;BME280;5220;43.192;23.284;2023-02-17T06:51:31;97866.63;;;5.59;100.00
10348;BME280;5220;43.192;23.284;2023-02-17T06:53:57;97863.69;;;5.68;100.00
10348;BME280;5220;43.192;23.284;2023-02-17T06:56:24;97864.94;;;5.80;100.00
10348;BME280;5220;43.192;23.284;2023-02-17T06:58:51;97870.56;;;5.91;100.00
10348;BME280;5220;43.192;23.284;2023-02-17T07:01:21;97869.63;;;5.93;100.00
10348;BME280;5220;43.192;23.284;2023-02-17T07:03:49;97875.41;;;5.99;100.00
10348;BME280;5220;43.192;23.284;2023-02-17T07:06:16;97866.25;;;6.13;100.00
10348;BME280;5220;43.192;23.284;2023-02-17T07:08:43;97868.56;;;6.19;100.00
10348;BME280;5220;43.192;23.284;2023-02-17T07:11:12;97866.19;;;6.35;100.00
10348;BME280;5220;43.192;23.284;2023-02-17T07:13:39;97871.56;;;6.51;100.00
10348;BME280;5220;43.192;23.284;2023-02-17T07:16:07;97858.38;;;6.57;100.00
10348;BME280;5220;43.192;23.284;2023-02-17T07:18:36;97873.00;;;6.76;100.00
10348;BME280;5220;43.192;23.284;2023-02-17T07:21:03;97875.78;;;6.92;100.00
10348;BME280;5220;43.192;23.284;2023-02-17T07:23:31;97883.91;;;7.03;100.00
10348;BME280;5220;43.192;23.284;2023-02-17T07:26:01;97883.50;;;7.12;100.00
10348;BME280;5220;43.192;23.284;2023-02-17T07:28:28;97885.59;;;7.23;100.00
10348;BME280;5220;43.192;23.284;2023-02-17T07:30:55;97887.44;;;7.39;100.00
10348;BME280;5220;43.192;23.284;2023-02-17T07:33:21;97897.78;;;7.58;100.00
10348;BME280;5220;43.192;23.284;2023-02-17T07:35:49;97892.91;;;7.71;100.00
10348;BME280;5220;43.192;23.284;2023-02-17T07:38:16;97900.09;;;7.83;100.00
10348;BME280;5220;43.192;23.284;2023-02-17T07:40:43;97893.63;;;7.91;100.00
10348;BME280;5220;43.192;23.284;2023-02-17T07:43:10;97892.97;;;8.05;100.00
10348;BME280;5220;43.192;23.284;2023-02-17T07:45:36;97892.25;;;8.20;100.00
10348;BME280;5220;43.192;23.284;2023-02-17T07:48:04;97889.91;;;8.33;100.00
10348;BME280;5220;43.192;23.284;2023-02-17T07:50:30;97894.81;;;8.39;100.00
10348;BME280;5220;43.192;23.284;2023-02-17T07:52:59;97888.63;;;8.58;100.00
10348;BME280;5220;43.192;23.284;2023-02-17T07:55:25;97887.94;;;8.72;100.00
10348;BME280;5220;43.192;23.284;2023-02-17T07:57:52;97895.53;;;8.92;100.00
10348;BME280;5220;43.192;23.284;2023-02-17T08:00:19;97895.81;;;9.03;100.00
10348;BME280;5220;43.192;23.284;2023-02-17T08:02:46;97891.94;;;9.12;100.00
10348;BME280;5220;43.192;23.284;2023-02-17T08:05:13;97897.16;;;9.28;100.00
10348;BME280;5220;43.192;23.284;2023-02-17T08:07:39;97895.66;;;9.39;100.00
10348;BME280;5220;43.192;23.284;2023-02-17T08:10:10;97892.25;;;9.54;100.00
10348;BME280;5220;43.192;23.284;2023-02-17T08:12:54;97880.09;;;9.70;95.54
10348;BME280;5220;43.192;23.284;2023-02-17T08:15:35;97891.00;;;9.93;69.70
10348;BME280;5220;43.192;23.284;2023-02-17T08:18:02;97891.72;;;10.10;67.98
10348;BME280;5220;43.192;23.284;2023-02-17T08:20:30;97891.44;;;10.31;62.02
10348;BME280;5220;43.192;23.284;2023-02-17T08:22:57;97885.13;;;10.50;56.97
10348;BME280;5220;43.192;23.284;2023-02-17T08:25:26;97879.59;;;10.70;52.30
10348;BME280;5220;43.192;23.284;2023-02-17T08:27:53;97881.41;;;10.98;49.74
10348;BME280;5220;43.192;23.284;2023-02-17T08:30:20;97885.78;;;11.26;48.84
10348;BME280;5220;43.192;23.284;2023-02-17T08:32:47;97888.00;;;11.46;48.18
10348;BME280;5220;43.192;23.284;2023-02-17T08:35:14;97885.19;;;11.63;48.22
10348;BME280;5220;43.192;23.284;2023-02-17T08:37:42;97891.38;;;11.76;46.22
10348;BME280;5220;43.192;23.284;2023-02-17T08:40:09;97888.25;;;11.84;46.15
10348;BME280;5220;43.192;23.284;2023-02-17T08:42:37;97887.38;;;11.98;43.06
10348;BME280;5220;43.192;23.284;2023-02-17T08:45:05;97888.38;;;12.09;42.71
10348;BME280;5220;43.192;23.284;2023-02-17T08:47:31;97892.16;;;12.18;42.55
10348;BME280;5220;43.192;23.284;2023-02-17T08:49:58;97897.09;;;12.22;41.64
10348;BME280;5220;43.192;23.284;2023-02-17T08:52:25;97894.53;;;12.35;40.61
10348;BME280;5220;43.192;23.284;2023-02-17T08:54:51;97902.38;;;12.48;41.30
10348;BME280;5220;43.192;23.284;2023-02-17T08:57:18;97904.91;;;12.62;40.57
10348;BME280;5220;43.192;23.284;2023-02-17T08:59:47;97893.31;;;12.53;40.52
10348;BME280;5220;43.192;23.284;2023-02-17T09:02:14;97901.25;;;12.64;40.69
10348;BME280;5220;43.192;23.284;2023-02-17T09:04:41;97893.38;;;12.78;38.64
10348;BME280;5220;43.192;23.284;2023-02-17T09:07:10;97893.78;;;12.72;39.25
10348;BME280;5220;43.192;23.284;2023-02-17T09:09:37;97896.63;;;12.82;39.87
10348;BME280;5220;43.192;23.284;2023-02-17T09:12:04;97894.63;;;12.85;40.11
10348;BME280;5220;43.192;23.284;2023-02-17T09:14:31;97888.16;;;12.91;39.99
10348;BME280;5220;43.192;23.284;2023-02-17T09:16:59;97897.75;;;12.90;38.45
10348;BME280;5220;43.192;23.284;2023-02-17T09:19:26;97888.88;;;13.06;39.61
10348;BME280;5220;43.192;23.284;2023-02-17T09:21:53;97891.31;;;13.21;38.88
10348;BME280;5220;43.192;23.284;2023-02-17T09:24:19;97893.00;;;13.22;38.71
10348;BME280;5220;43.192;23.284;2023-02-17T09:26:46;97893.50;;;13.27;38.82
10348;BME280;5220;43.192;23.284;2023-02-17T09:29:13;97888.63;;;13.35;37.66
10348;BME280;5220;43.192;23.284;2023-02-17T09:31:40;97883.75;;;13.42;36.83
10348;BME280;5220;43.192;23.284;2023-02-17T09:34:08;97886.38;;;13.55;37.70
10348;BME280;5220;43.192;23.284;2023-02-17T09:36:38;97892.75;;;13.63;37.44
10348;BME280;5220;43.192;23.284;2023-02-17T09:39:05;97883.50;;;13.70;36.96
10348;BME280;5220;43.192;23.284;2023-02-17T09:41:36;97890.31;;;13.73;36.39
10348;BME280;5220;43.192;23.284;2023-02-17T09:44:05;97898.88;;;13.75;35.85
10348;BME280;5220;43.192;23.284;2023-02-17T09:46:36;97893.94;;;13.83;38.46
10348;BME280;5220;43.192;23.284;2023-02-17T09:49:10;97891.44;;;13.81;36.01
10348;BME280;5220;43.192;23.284;2023-02-17T09:51:42;97891.75;;;13.77;36.24
10348;BME280;5220;43.192;23.284;2023-02-17T09:54:15;97889.50;;;13.96;37.33
10348;BME280;5220;43.192;23.284;2023-02-17T09:56:46;97888.22;;;14.01;36.23
10348;BME280;5220;43.192;23.284;2023-02-17T09:59:17;97886.31;;;14.16;37.61
10348;BME280;5220;43.192;23.284;2023-02-17T10:01:46;97887.13;;;14.17;36.14
10348;BME280;5220;43.192;23.284;2023-02-17T10:04:18;97875.63;;;14.19;36.02
10348;BME280;5220;43.192;23.284;2023-02-17T10:06:48;97883.34;;;14.21;36.87
10348;BME280;5220;43.192;23.284;2023-02-17T10:09:22;97875.41;;;14.22;35.51
10348;BME280;5220;43.192;23.284;2023-02-17T10:11:56;97885.94;;;14.33;36.28
10348;BME280;5220;43.192;23.284;2023-02-17T10:14:28;97876.16;;;14.59;44.46
10348;BME280;5220;43.192;23.284;2023-02-17T10:17:01;97868.84;;;14.75;42.88
10348;BME280;5220;43.192;23.284;2023-02-17T10:19:33;97867.16;;;14.85;37.04
10348;BME280;5220;43.192;23.284;2023-02-17T10:22:06;97872.72;;;14.70;35.47
10348;BME280;5220;43.192;23.284;2023-02-17T10:24:34;97867.16;;;14.74;34.96
10348;BME280;5220;43.192;23.284;2023-02-17T10:27:29;97859.16;;;14.65;34.44
10348;BME280;5220;43.192;23.284;2023-02-17T10:30:07;97860.59;;;14.69;34.72
10348;BME280;5220;43.192;23.284;2023-02-17T10:32:48;97860.16;;;14.86;35.97
10348;BME280;5220;43.192;23.284;2023-02-17T10:35:22;97852.03;;;14.78;35.70
10348;BME280;5220;43.192;23.284;2023-02-17T10:37:54;97851.66;;;14.71;35.59
10348;BME280;5220;43.192;23.284;2023-02-17T10:40:26;97846.81;;;14.78;36.52
10348;BME280;5220;43.192;23.284;2023-02-17T10:42:56;97851.13;;;14.90;36.82
10348;BME280;5220;43.192;23.284;2023-02-17T10:45:27;97850.66;;;14.85;35.60
10348;BME280;5220;43.192;23.284;2023-02-17T10:48:00;97844.28;;;14.76;35.85
10348;BME280;5220;43.192;23.284;2023-02-17T10:50:29;97844.81;;;14.92;35.07
10348;BME280;5220;43.192;23.284;2023-02-17T10:52:57;97849.56;;;14.87;35.91
10348;BME280;5220;43.192;23.284;2023-02-17T10:55:30;97843.88;;;14.93;36.70
10348;BME280;5220;43.192;23.284;2023-02-17T10:58:03;97838.97;;;15.11;37.48
10348;BME280;5220;43.192;23.284;2023-02-17T11:00:31;97838.03;;;15.12;37.87
10348;BME280;5220;43.192;23.284;2023-02-17T11:02:58;97846.84;;;15.11;36.61
10348;BME280;5220;43.192;23.284;2023-02-17T11:05:27;97838.16;;;15.22;36.37
10348;BME280;5220;43.192;23.284;2023-02-17T11:07:57;97842.44;;;15.00;35.86
10348;BME280;5220;43.192;23.284;2023-02-17T11:10:28;97836.38;;;15.00;36.38
10348;BME280;5220;43.192;23.284;2023-02-17T11:12:56;97834.34;;;15.15;36.90
10348;BME280;5220;43.192;23.284;2023-02-17T11:15:26;97832.66;;;15.14;36.95
10348;BME280;5220;43.192;23.284;2023-02-17T11:17:55;97830.19;;;15.12;37.76
10348;BME280;5220;43.192;23.284;2023-02-17T11:20:30;97835.56;;;15.22;36.90
10348;BME280;5220;43.192;23.284;2023-02-17T11:23:20;97829.47;;;15.21;36.11
10348;BME280;5220;43.192;23.284;2023-02-17T11:25:57;97818.13;;;15.32;36.81
10348;BME280;5220;43.192;23.284;2023-02-17T11:28:24;97819.06;;;15.42;37.00
10348;BME280;5220;43.192;23.284;2023-02-17T11:30:54;97811.00;;;15.56;37.14
10348;BME280;5220;43.192;23.284;2023-02-17T11:33:22;97821.59;;;15.21;35.96
10348;BME280;5220;43.192;23.284;2023-02-17T11:35:52;97811.94;;;15.44;35.52
10348;BME280;5220;43.192;23.284;2023-02-17T11:38:23;97809.81;;;15.38;36.85
10348;BME280;5220;43.192;23.284;2023-02-17T11:40:55;97804.53;;;15.60;36.59
10348;BME280;5220;43.192;23.284;2023-02-17T11:43:23;97808.63;;;15.53;36.05
10348;BME280;5220;43.192;23.284;2023-02-17T11:45:57;97799.53;;;15.57;36.37
10348;BME280;5220;43.192;23.284;2023-02-17T11:49:22;97800.22;;;15.70;36.07
10348;BME280;5220;43.192;23.284;2023-02-17T11:52:04;97792.34;;;15.81;34.83
10348;BME280;5220;43.192;23.284;2023-02-17T11:54:46;97794.75;;;15.73;35.83
10348;BME280;5220;43.192;23.284;2023-02-17T11:57:28;97788.78;;;15.71;35.32
10348;BME280;5220;43.192;23.284;2023-02-17T12:00:08;97783.97;;;15.87;35.88
10348;BME280;5220;43.192;23.284;2023-02-17T12:05:35;97778.84;;;15.86;35.58
10348;BME280;5220;43.192;23.284;2023-02-17T12:08:16;97776.88;;;15.67;35.49
10348;BME280;5220;43.192;23.284;2023-02-17T12:10:59;97777.41;;;15.93;36.95
10348;BME280;5220;43.192;23.284;2023-02-17T12:13:38;97767.66;;;15.73;34.83
10348;BME280;5220;43.192;23.284;2023-02-17T12:16:22;97770.47;;;15.92;35.49
10348;BME280;5220;43.192;23.284;2023-02-17T12:19:01;97766.09;;;16.13;34.91
10348;BME280;5220;43.192;23.284;2023-02-17T12:21:39;97755.34;;;16.37;34.49
10348;BME280;5220;43.192;23.284;2023-02-17T12:24:23;97758.63;;;16.50;35.35
10348;BME280;5220;43.192;23.284;2023-02-17T12:27:00;97762.06;;;16.30;35.36
10348;BME280;5220;43.192;23.284;2023-02-17T12:29:41;97759.88;;;16.35;34.46
10348;BME280;5220;43.192;23.284;2023-02-17T12:32:20;97761.44;;;16.37;35.86
10348;BME280;5220;43.192;23.284;2023-02-17T12:34:54;97758.25;;;16.34;34.49
10348;BME280;5220;43.192;23.284;2023-02-17T12:37:27;97747.53;;;16.46;34.29
10348;BME280;5220;43.192;23.284;2023-02-17T12:39:58;97742.50;;;16.34;34.26
10348;BME280;5220;43.192;23.284;2023-02-17T12:42:32;97740.16;;;16.20;33.85
10348;BME280;5220;43.192;23.284;2023-02-17T12:45:03;97737.75;;;16.28;34.81
10348;BME280;5220;43.192;23.284;2023-02-17T12:47:36;97739.78;;;16.45;35.89
10348;BME280;5220;43.192;23.284;2023-02-17T12:50:13;97744.53;;;16.30;34.40
10348;BME280;5220;43.192;23.284;2023-02-17T12:52:43;97727.63;;;16.44;35.22
10348;BME280;5220;43.192;23.284;2023-02-17T12:55:15;97737.81;;;16.37;35.45
10348;BME280;5220;43.192;23.284;2023-02-17T12:57:47;97737.53;;;16.20;34.74
10348;BME280;5220;43.192;23.284;2023-02-17T13:00:20;97739.28;;;16.30;35.23
10348;BME280;5220;43.192;23.284;2023-02-17T13:02:48;97741.00;;;16.41;37.11
10348;BME280;5220;43.192;23.284;2023-02-17T13:05:20;97737.66;;;16.39;34.63
10348;BME280;5220;43.192;23.284;2023-02-17T13:07:55;97735.88;;;16.39;34.63
10348;BME280;5220;43.192;23.284;2023-02-17T13:10:34;97743.19;;;16.36;35.54
10348;BME280;5220;43.192;23.284;2023-02-17T13:13:05;97737.81;;;16.37;36.37
10348;BME280;5220;43.192;23.284;2023-02-17T13:15:36;97744.28;;;16.33;35.79
10348;BME280;5220;43.192;23.284;2023-02-17T13:18:05;97745.03;;;16.45;36.42
10348;BME280;5220;43.192;23.284;2023-02-17T13:20:51;97746.41;;;16.60;36.29